sensor_id;sensor_type;location;lat;lon;timestamp;pressure;altitude;pressure_sealevel;temperature;humidity
60832;BME280;46665;51.558;-0.448;2023-04-08T00:01:02;101857.75;;;5.05;100.00
60832;BME280;46665;51.558;-0.448;2023-04-08T00:03:46;101847.38;;;5.02;100.00
60832;BME280;46665;51.558;-0.448;2023-04-08T00:06:30;101845.50;;;5.03;100.00
60832;BME280;46665;51.558;-0.448;2023-04-08T00:09:14;101859.81;;;5.03;100.00
60832;BME280;46665;51.558;-0.448;2023-04-08T00:11:58;101852.78;;;5.02;100.00
60832;BME280;46665;51.558;-0.448;2023-04-08T00:14:42;101853.59;;;5.03;100.00
60832;BME280;46665;51.558;-0.448;2023-04-08T00:17:26;101846.97;;;4.98;100.00
60832;BME280;46665;51.558;-0.448;2023-04-08T00:20:10;101845.31;;;4.97;100.00
60832;BME280;46665;51.558;-0.448;2023-04-08T00:22:54;101864.22;;;4.97;100.00
60832;BME280;46665;51.558;-0.448;2023-04-08T00:25:38;101852.81;;;4.95;100.00
60832;BME280;46665;51.558;-0.448;2023-04-08T00:28:22;101852.41;;;4.92;100.00
60832;BME280;46665;51.558;-0.448;2023-04-08T00:31:06;101867.78;;;4.91;100.00
60832;BME280;46665;51.558;-0.448;2023-04-08T00:33:50;101866.09;;;4.90;100.00
60832;BME280;46665;51.558;-0.448;2023-04-08T00:36:34;101859.88;;;4.90;100.00
60832;BME280;46665;51.558;-0.448;2023-04-08T00:39:18;101858.00;;;4.90;100.00
60832;BME280;46665;51.558;-0.448;2023-04-08T00:42:03;101861.75;;;4.89;100.00
60832;BME280;46665;51.558;-0.448;2023-04-08T00:44:47;101861.34;;;4.86;100.00
60832;BME280;46665;51.558;-0.448;2023-04-08T00:47:31;101869.66;;;4.84;100.00
60832;BME280;46665;51.558;-0.448;2023-04-08T00:50:15;101859.06;;;4.83;100.00
60832;BME280;46665;51.558;-0.448;2023-04-08T00:52:59;101863.47;;;4.77;100.00
60832;BME280;46665;51.558;-0.448;2023-04-08T00:55:43;101856.81;;;4.73;100.00
60832;BME280;46665;51.558;-0.448;2023-04-08T00:58:27;101861.00;;;4.69;100.00
60832;BME280;46665;51.558;-0.448;2023-04-08T01:07:48;101856.44;;;4.63;100.00
60832;BME280;46665;51.558;-0.448;2023-04-08T01:10:34;101856.03;;;4.59;100.00
60832;BME280;46665;51.558;-0.448;2023-04-08T01:13:22;101855.66;;;4.49;100.00
60832;BME280;46665;51.558;-0.448;2023-04-08T01:16:11;101864.75;;;4.54;100.00
60832;BME280;46665;51.558;-0.448;2023-04-08T01:18:55;101859.56;;;4.53;100.00
60832;BME280;46665;51.558;-0.448;2023-04-08T01:21:39;101863.75;;;4.49;100.00
60832;BME280;46665;51.558;-0.448;2023-04-08T01:24:27;101867.25;;;4.43;100.00
60832;BME280;46665;51.558;-0.448;2023-04-08T01:27:13;101872.88;;;4.41;100.00
60832;BME280;46665;51.558;-0.448;2023-04-08T01:29:57;101865.03;;;4.26;100.00
60832;BME280;46665;51.558;-0.448;2023-04-08T01:32:43;101864.81;;;4.21;100.00
60832;BME280;46665;51.558;-0.448;2023-04-08T01:35:29;101872.91;;;4.08;100.00
60832;BME280;46665;51.558;-0.448;2023-04-08T01:38:15;101871.25;;;4.00;100.00
60832;BME280;46665;51.558;-0.448;2023-04-08T01:41:02;101869.38;;;3.94;100.00
60832;BME280;46665;51.558;-0.448;2023-04-08T01:43:47;101866.06;;;3.92;100.00
60832;BME280;46665;51.558;-0.448;2023-04-08T01:46:32;101867.31;;;3.96;100.00
60832;BME280;46665;51.558;-0.448;2023-04-08T01:49:17;101875.00;;;3.93;100.00
60832;BME280;46665;51.558;-0.448;2023-04-08T01:52:03;101875.59;;;3.88;100.00
60832;BME280;46665;51.558;-0.448;2023-04-08T01:54:48;101874.97;;;3.86;100.00
60832;BME280;46665;51.558;-0.448;2023-04-08T01:57:35;101875.38;;;3.89;100.00
60832;BME280;46665;51.558;-0.448;2023-04-08T02:00:22;101862.78;;;3.90;100.00
60832;BME280;46665;51.558;-0.448;2023-04-08T02:03:11;101874.97;;;3.86;100.00
60832;BME280;46665;51.558;-0.448;2023-04-08T02:05:55;101872.47;;;3.84;100.00
60832;BME280;46665;51.558;-0.448;2023-04-08T02:08:39;101871.84;;;3.69;100.00
60832;BME280;46665;51.558;-0.448;2023-04-08T02:11:23;101874.75;;;3.67;100.00
60832;BME280;46665;51.558;-0.448;2023-04-08T02:14:08;101873.72;;;3.68;100.00
60832;BME280;46665;51.558;-0.448;2023-04-08T02:17:00;101880.34;;;3.73;100.00
60832;BME280;46665;51.558;-0.448;2023-04-08T02:23:10;101863.34;;;3.72;100.00
60832;BME280;46665;51.558;-0.448;2023-04-08T02:25:57;101872.88;;;3.75;100.00
60832;BME280;46665;51.558;-0.448;2023-04-08T02:28:42;101873.50;;;3.77;100.00
60832;BME280;46665;51.558;-0.448;2023-04-08T02:31:26;101874.34;;;3.71;100.00
60832;BME280;46665;51.558;-0.448;2023-04-08T02:34:11;101867.91;;;3.72;100.00
60832;BME280;46665;51.558;-0.448;2023-04-08T02:36:57;101861.69;;;3.64;100.00
60832;BME280;46665;51.558;-0.448;2023-04-08T02:39:41;101870.38;;;3.66;100.00
60832;BME280;46665;51.558;-0.448;2023-04-08T02:42:25;101876.00;;;3.65;100.00
60832;BME280;46665;51.558;-0.448;2023-04-08T02:45:09;101875.16;;;3.58;100.00
60832;BME280;46665;51.558;-0.448;2023-04-08T02:47:53;101872.84;;;3.48;100.00
60832;BME280;46665;51.558;-0.448;2023-04-08T02:50:38;101881.75;;;3.48;100.00
60832;BME280;46665;51.558;-0.448;2023-04-08T02:53:23;101882.56;;;3.42;100.00
60832;BME280;46665;51.558;-0.448;2023-04-08T02:56:10;101877.16;;;3.36;100.00
60832;BME280;46665;51.558;-0.448;2023-04-08T02:58:55;101882.31;;;3.31;100.00
60832;BME280;46665;51.558;-0.448;2023-04-08T03:01:39;101876.09;;;3.23;100.00
60832;BME280;46665;51.558;-0.448;2023-04-08T03:04:22;101889.31;;;3.18;100.00
60832;BME280;46665;51.558;-0.448;2023-04-08T03:07:07;101879.78;;;3.09;100.00
60832;BME280;46665;51.558;-0.448;2023-04-08T03:09:51;101891.09;;;2.98;100.00
60832;BME280;46665;51.558;-0.448;2023-04-08T03:12:35;101882.81;;;2.93;100.00
60832;BME280;46665;51.558;-0.448;2023-04-08T03:15:19;101892.78;;;2.99;100.00
60832;BME280;46665;51.558;-0.448;2023-04-08T03:18:03;101903.78;;;3.11;100.00
60832;BME280;46665;51.558;-0.448;2023-04-08T03:20:47;101898.63;;;3.16;100.00
60832;BME280;46665;51.558;-0.448;2023-04-08T03:23:32;101901.72;;;3.13;100.00
60832;BME280;46665;51.558;-0.448;2023-04-08T03:26:16;101907.50;;;3.10;100.00
60832;BME280;46665;51.558;-0.448;2023-04-08T03:29:00;101911.06;;;3.17;100.00
60832;BME280;46665;51.558;-0.448;2023-04-08T03:31:44;101912.66;;;3.11;100.00
60832;BME280;46665;51.558;-0.448;2023-04-08T03:34:29;101914.31;;;3.06;100.00
60832;BME280;46665;51.558;-0.448;2023-04-08T03:37:13;101913.66;;;2.97;100.00
60832;BME280;46665;51.558;-0.448;2023-04-08T03:39:57;101908.00;;;2.85;100.00
60832;BME280;46665;51.558;-0.448;2023-04-08T03:42:41;101928.91;;;2.90;100.00
60832;BME280;46665;51.558;-0.448;2023-04-08T03:45:25;101918.97;;;2.90;100.00
60832;BME280;46665;51.558;-0.448;2023-04-08T03:48:09;101927.22;;;2.82;100.00
60832;BME280;46665;51.558;-0.448;2023-04-08T03:50:52;101928.44;;;2.79;100.00
60832;BME280;46665;51.558;-0.448;2023-04-08T03:53:36;101937.16;;;2.81;100.00
60832;BME280;46665;51.558;-0.448;2023-04-08T03:56:20;101918.47;;;2.73;100.00
60832;BME280;46665;51.558;-0.448;2023-04-08T03:59:04;101933.34;;;2.69;100.00
60832;BME280;46665;51.558;-0.448;2023-04-08T04:01:48;101934.56;;;2.67;100.00
60832;BME280;46665;51.558;-0.448;2023-04-08T04:04:33;101934.13;;;2.63;100.00
60832;BME280;46665;51.558;-0.448;2023-04-08T04:07:19;101932.66;;;2.60;100.00
60832;BME280;46665;51.558;-0.448;2023-04-08T04:10:04;101935.34;;;2.60;100.00
60832;BME280;46665;51.558;-0.448;2023-04-08T04:12:49;101940.28;;;2.57;100.00
60832;BME280;46665;51.558;-0.448;2023-04-08T04:15:37;101941.34;;;2.56;100.00
60832;BME280;46665;51.558;-0.448;2023-04-08T04:18:21;101944.03;;;2.56;100.00
60832;BME280;46665;51.558;-0.448;2023-04-08T04:21:05;101946.69;;;2.56;100.00
60832;BME280;46665;51.558;-0.448;2023-04-08T04:23:50;101948.13;;;2.52;100.00
60832;BME280;46665;51.558;-0.448;2023-04-08T04:26:34;101944.59;;;2.51;100.00
60832;BME280;46665;51.558;-0.448;2023-04-08T04:29:17;101946.00;;;2.47;100.00
60832;BME280;46665;51.558;-0.448;2023-04-08T04:32:01;101950.94;;;2.44;100.00
60832;BME280;46665;51.558;-0.448;2023-04-08T04:34:45;101949.41;;;2.34;100.00
60832;BME280;46665;51.558;-0.448;2023-04-08T04:37:29;101954.41;;;2.37;100.00
60832;BME280;46665;51.558;-0.448;2023-04-08T04:40:13;101951.69;;;2.31;100.00
60832;BME280;46665;51.558;-0.448;2023-04-08T04:42:58;101956.44;;;2.35;100.00
60832;BME280;46665;51.558;-0.448;2023-04-08T04:45:42;101964.50;;;2.35;100.00
60832;BME280;46665;51.558;-0.448;2023-04-08T04:48:28;101960.34;;;2.33;100.00
60832;BME280;46665;51.558;-0.448;2023-04-08T04:51:11;101959.09;;;2.29;100.00
60832;BME280;46665;51.558;-0.448;2023-04-08T04:53:55;101963.63;;;2.28;100.00
60832;BME280;46665;51.558;-0.448;2023-04-08T04:56:39;101971.88;;;2.27;100.00
60832;BME280;46665;51.558;-0.448;2023-04-08T04:59:23;101967.16;;;2.29;100.00
60832;BME280;46665;51.558;-0.448;2023-04-08T05:02:07;101972.69;;;2.27;100.00
60832;BME280;46665;51.558;-0.448;2023-04-08T05:04:51;101973.75;;;2.26;100.00
60832;BME280;46665;51.558;-0.448;2023-04-08T05:07:38;101972.28;;;2.24;100.00
60832;BME280;46665;51.558;-0.448;2023-04-08T05:10:22;101974.31;;;2.22;100.00
60832;BME280;46665;51.558;-0.448;2023-04-08T05:13:07;101977.19;;;2.20;100.00
60832;BME280;46665;51.558;-0.448;2023-04-08T05:15:52;101980.25;;;2.17;100.00
60832;BME280;46665;51.558;-0.448;2023-04-08T05:18:36;101975.72;;;2.17;100.00
60832;BME280;46665;51.558;-0.448;2023-04-08T05:21:20;101975.94;;;2.16;100.00
60832;BME280;46665;51.558;-0.448;2023-04-08T05:24:04;101983.34;;;2.14;100.00
60832;BME280;46665;51.558;-0.448;2023-04-08T05:26:48;101974.84;;;2.10;100.00
60832;BME280;46665;51.558;-0.448;2023-04-08T05:29:36;101975.03;;;2.09;100.00
60832;BME280;46665;51.558;-0.448;2023-04-08T05:32:20;101982.00;;;2.03;100.00
60832;BME280;46665;51.558;-0.448;2023-04-08T05:35:04;101986.66;;;1.94;100.00
60832;BME280;46665;51.558;-0.448;2023-04-08T05:37:48;101984.09;;;1.86;100.00
60832;BME280;46665;51.558;-0.448;2023-04-08T05:40:32;101990.09;;;1.88;100.00
60832;BME280;46665;51.558;-0.448;2023-04-08T05:43:16;101991.75;;;1.89;100.00
60832;BME280;46665;51.558;-0.448;2023-04-08T05:46:05;101993.88;;;1.94;100.00
60832;BME280;46665;51.558;-0.448;2023-04-08T05:48:49;101994.34;;;1.98;100.00
60832;BME280;46665;51.558;-0.448;2023-04-08T05:51:34;101995.34;;;1.97;100.00
60832;BME280;46665;51.558;-0.448;2023-04-08T05:54:18;102004.69;;;2.01;100.00
60832;BME280;46665;51.558;-0.448;2023-04-08T05:57:01;101997.63;;;2.00;100.00
60832;BME280;46665;51.558;-0.448;2023-04-08T05:59:45;102002.25;;;2.06;100.00
60832;BME280;46665;51.558;-0.448;2023-04-08T06:02:29;102011.22;;;2.13;100.00
60832;BME280;46665;51.558;-0.448;2023-04-08T06:05:13;102008.78;;;2.18;100.00
60832;BME280;46665;51.558;-0.448;2023-04-08T06:07:58;102009.88;;;2.24;100.00
60832;BME280;46665;51.558;-0.448;2023-04-08T06:10:49;102019.78;;;2.23;100.00
60832;BME280;46665;51.558;-0.448;2023-04-08T06:13:33;102024.38;;;2.29;100.00
60832;BME280;46665;51.558;-0.448;2023-04-08T06:16:17;102022.03;;;2.41;100.00
60832;BME280;46665;51.558;-0.448;2023-04-08T06:19:01;102024.97;;;2.46;100.00
60832;BME280;46665;51.558;-0.448;2023-04-08T06:21:45;102027.25;;;2.49;100.00
60832;BME280;46665;51.558;-0.448;2023-04-08T06:24:30;102022.56;;;2.58;100.00
60832;BME280;46665;51.558;-0.448;2023-04-08T06:27:14;102026.13;;;2.65;100.00
60832;BME280;46665;51.558;-0.448;2023-04-08T06:29:58;102025.38;;;2.71;100.00
60832;BME280;46665;51.558;-0.448;2023-04-08T06:32:42;102026.88;;;2.80;100.00
60832;BME280;46665;51.558;-0.448;2023-04-08T06:35:26;102032.94;;;2.89;100.00
60832;BME280;46665;51.558;-0.448;2023-04-08T06:38:10;102034.25;;;3.00;100.00
60832;BME280;46665;51.558;-0.448;2023-04-08T06:40:54;102039.94;;;3.12;100.00
60832;BME280;46665;51.558;-0.448;2023-04-08T06:43:39;102035.63;;;3.17;100.00
60832;BME280;46665;51.558;-0.448;2023-04-08T06:46:23;102047.84;;;3.26;100.00
60832;BME280;46665;51.558;-0.448;2023-04-08T06:49:07;102047.72;;;3.35;100.00
60832;BME280;46665;51.558;-0.448;2023-04-08T06:51:51;102056.66;;;3.42;100.00
60832;BME280;46665;51.558;-0.448;2023-04-08T06:54:35;102057.50;;;3.49;100.00
60832;BME280;46665;51.558;-0.448;2023-04-08T06:57:19;102049.06;;;3.59;100.00
60832;BME280;46665;51.558;-0.448;2023-04-08T07:00:03;102056.97;;;3.67;100.00
60832;BME280;46665;51.558;-0.448;2023-04-08T07:02:47;102055.59;;;3.78;100.00
60832;BME280;46665;51.558;-0.448;2023-04-08T07:05:31;102051.44;;;3.82;100.00
60832;BME280;46665;51.558;-0.448;2023-04-08T07:08:15;102070.97;;;3.97;100.00
60832;BME280;46665;51.558;-0.448;2023-04-08T07:10:59;102066.00;;;4.07;100.00
60832;BME280;46665;51.558;-0.448;2023-04-08T07:13:43;102067.09;;;4.20;100.00
60832;BME280;46665;51.558;-0.448;2023-04-08T07:16:28;102066.50;;;4.31;100.00
60832;BME280;46665;51.558;-0.448;2023-04-08T07:19:12;102072.09;;;4.43;100.00
60832;BME280;46665;51.558;-0.448;2023-04-08T07:21:56;102074.84;;;4.56;100.00
60832;BME280;46665;51.558;-0.448;2023-04-08T07:24:40;102070.69;;;4.67;100.00
60832;BME280;46665;51.558;-0.448;2023-04-08T07:27:25;102084.81;;;4.82;100.00
60832;BME280;46665;51.558;-0.448;2023-04-08T07:30:10;102074.81;;;4.96;100.00
60832;BME280;46665;51.558;-0.448;2023-04-08T07:32:54;102066.94;;;5.08;100.00
60832;BME280;46665;51.558;-0.448;2023-04-08T07:35:40;102076.44;;;5.24;100.00
60832;BME280;46665;51.558;-0.448;2023-04-08T07:38:24;102076.03;;;5.33;100.00
60832;BME280;46665;51.558;-0.448;2023-04-08T07:41:08;102079.94;;;5.44;100.00
60832;BME280;46665;51.558;-0.448;2023-04-08T07:43:52;102093.63;;;5.56;100.00
60832;BME280;46665;51.558;-0.448;2023-04-08T07:46:36;102089.44;;;5.67;100.00
60832;BME280;46665;51.558;-0.448;2023-04-08T07:49:21;102091.69;;;5.76;100.00
60832;BME280;46665;51.558;-0.448;2023-04-08T07:52:05;102099.97;;;5.88;100.00
60832;BME280;46665;51.558;-0.448;2023-04-08T07:54:49;102103.88;;;6.05;100.00
60832;BME280;46665;51.558;-0.448;2023-04-08T07:57:33;102097.38;;;6.13;100.00
60832;BME280;46665;51.558;-0.448;2023-04-08T08:00:17;102102.72;;;6.26;100.00
60832;BME280;46665;51.558;-0.448;2023-04-08T08:03:04;102109.53;;;6.36;100.00
60832;BME280;46665;51.558;-0.448;2023-04-08T08:05:48;102113.63;;;6.45;100.00
60832;BME280;46665;51.558;-0.448;2023-04-08T08:08:32;102119.16;;;6.57;100.00
60832;BME280;46665;51.558;-0.448;2023-04-08T08:11:18;102119.53;;;6.67;100.00
60832;BME280;46665;51.558;-0.448;2023-04-08T08:14:02;102128.41;;;6.74;100.00
60832;BME280;46665;51.558;-0.448;2023-04-08T08:16:47;102125.44;;;6.82;100.00
60832;BME280;46665;51.558;-0.448;2023-04-08T08:19:31;102126.84;;;6.91;100.00
60832;BME280;46665;51.558;-0.448;2023-04-08T08:22:15;102129.88;;;7.02;100.00
60832;BME280;46665;51.558;-0.448;2023-04-08T08:25:00;102129.81;;;7.08;100.00
60832;BME280;46665;51.558;-0.448;2023-04-08T08:27:44;102127.41;;;7.19;100.00
60832;BME280;46665;51.558;-0.448;2023-04-08T08:30:28;102131.19;;;7.18;100.00
60832;BME280;46665;51.558;-0.448;2023-04-08T08:33:12;102124.06;;;7.23;100.00
60832;BME280;46665;51.558;-0.448;2023-04-08T08:35:56;102122.28;;;7.35;100.00
60832;BME280;46665;51.558;-0.448;2023-04-08T08:38:43;102135.91;;;7.47;100.00
60832;BME280;46665;51.558;-0.448;2023-04-08T08:41:32;102128.69;;;7.59;100.00
60832;BME280;46665;51.558;-0.448;2023-04-08T08:44:17;102132.75;;;7.69;100.00
60832;BME280;46665;51.558;-0.448;2023-04-08T08:47:01;102130.50;;;7.84;100.00
60832;BME280;46665;51.558;-0.448;2023-04-08T08:49:46;102139.53;;;7.96;100.00
60832;BME280;46665;51.558;-0.448;2023-04-08T08:52:30;102136.81;;;7.96;100.00
60832;BME280;46665;51.558;-0.448;2023-04-08T08:55:16;102134.03;;;8.03;100.00
60832;BME280;46665;51.558;-0.448;2023-04-08T08:58:01;102137.25;;;8.12;100.00
60832;BME280;46665;51.558;-0.448;2023-04-08T09:00:45;102137.31;;;8.23;100.00
60832;BME280;46665;51.558;-0.448;2023-04-08T09:03:29;102135.56;;;8.29;100.00
60832;BME280;46665;51.558;-0.448;2023-04-08T09:06:17;102134.44;;;8.37;100.00
60832;BME280;46665;51.558;-0.448;2023-04-08T09:09:01;102138.25;;;8.48;100.00
60832;BME280;46665;51.558;-0.448;2023-04-08T09:11:48;102133.56;;;8.55;100.00
60832;BME280;46665;51.558;-0.448;2023-04-08T09:14:32;102131.94;;;8.65;100.00
60832;BME280;46665;51.558;-0.448;2023-04-08T09:17:30;102139.31;;;8.77;100.00
60832;BME280;46665;51.558;-0.448;2023-04-08T09:20:16;102134.34;;;8.85;100.00
60832;BME280;46665;51.558;-0.448;2023-04-08T09:23:01;102141.47;;;8.98;100.00
60832;BME280;46665;51.558;-0.448;2023-04-08T09:25:45;102139.25;;;9.07;100.00
60832;BME280;46665;51.558;-0.448;2023-04-08T09:28:29;102134.88;;;9.18;100.00
60832;BME280;46665;51.558;-0.448;2023-04-08T09:34:11;102137.25;;;9.38;100.00
60832;BME280;46665;51.558;-0.448;2023-04-08T09:36:56;102129.66;;;9.51;100.00
60832;BME280;46665;51.558;-0.448;2023-04-08T09:39:40;102136.19;;;9.62;100.00
60832;BME280;46665;51.558;-0.448;2023-04-08T09:42:24;102147.94;;;9.80;100.00
60832;BME280;46665;51.558;-0.448;2023-04-08T09:45:09;102137.78;;;9.87;97.47
60832;BME280;46665;51.558;-0.448;2023-04-08T09:47:58;102147.91;;;10.03;99.07
60832;BME280;46665;51.558;-0.448;2023-04-08T09:50:49;102146.22;;;10.14;95.56
60832;BME280;46665;51.558;-0.448;2023-04-08T09:53:35;102151.19;;;10.29;96.13
60832;BME280;46665;51.558;-0.448;2023-04-08T09:56:20;102146.75;;;10.39;94.94
60832;BME280;46665;51.558;-0.448;2023-04-08T09:59:11;102149.81;;;10.43;89.54
60832;BME280;46665;51.558;-0.448;2023-04-08T10:02:00;102149.34;;;10.63;90.69
60832;BME280;46665;51.558;-0.448;2023-04-08T10:04:50;102151.84;;;10.65;85.20
60832;BME280;46665;51.558;-0.448;2023-04-08T10:07:36;102156.56;;;10.69;87.22
60832;BME280;46665;51.558;-0.448;2023-04-08T10:10:21;102151.94;;;10.70;80.07
60832;BME280;46665;51.558;-0.448;2023-04-08T10:13:08;102162.00;;;10.86;79.15
60832;BME280;46665;51.558;-0.448;2023-04-08T10:18:56;102157.31;;;10.98;77.47
60832;BME280;46665;51.558;-0.448;2023-04-08T10:21:40;102158.34;;;11.09;77.86
60832;BME280;46665;51.558;-0.448;2023-04-08T10:24:32;102149.97;;;11.16;75.21
60832;BME280;46665;51.558;-0.448;2023-04-08T10:27:38;102153.13;;;11.24;75.88
60832;BME280;46665;51.558;-0.448;2023-04-08T10:33:16;102151.78;;;11.44;77.07
60832;BME280;46665;51.558;-0.448;2023-04-08T10:36:08;102149.38;;;11.47;75.72
60832;BME280;46665;51.558;-0.448;2023-04-08T10:38:53;102139.63;;;11.52;76.44
60832;BME280;46665;51.558;-0.448;2023-04-08T10:41:44;102144.81;;;11.53;74.13
60832;BME280;46665;51.558;-0.448;2023-04-08T10:44:28;102140.69;;;11.50;70.82
60832;BME280;46665;51.558;-0.448;2023-04-08T10:47:12;102136.13;;;11.56;72.03
60832;BME280;46665;51.558;-0.448;2023-04-08T10:49:56;102137.31;;;11.60;70.77
60832;BME280;46665;51.558;-0.448;2023-04-08T10:52:47;102132.66;;;11.61;71.36
60832;BME280;46665;51.558;-0.448;2023-04-08T10:55:31;102125.56;;;11.60;70.35
60832;BME280;46665;51.558;-0.448;2023-04-08T10:58:16;102124.25;;;11.62;68.30
60832;BME280;46665;51.558;-0.448;2023-04-08T11:01:07;102130.38;;;11.75;69.17
60832;BME280;46665;51.558;-0.448;2023-04-08T11:03:52;102126.38;;;11.82;70.22
60832;BME280;46665;51.558;-0.448;2023-04-08T11:06:36;102121.59;;;11.89;70.47
60832;BME280;46665;51.558;-0.448;2023-04-08T11:09:20;102126.00;;;11.90;68.46
60832;BME280;46665;51.558;-0.448;2023-04-08T11:12:04;102117.50;;;11.87;69.67
60832;BME280;46665;51.558;-0.448;2023-04-08T11:14:49;102110.47;;;11.74;69.38
60832;BME280;46665;51.558;-0.448;2023-04-08T11:17:35;102111.06;;;11.76;70.12
60832;BME280;46665;51.558;-0.448;2023-04-08T11:20:20;102101.59;;;11.84;69.25
60832;BME280;46665;51.558;-0.448;2023-04-08T11:23:12;102108.88;;;11.95;69.37
60832;BME280;46665;51.558;-0.448;2023-04-08T11:25:56;102110.75;;;11.95;66.04
60832;BME280;46665;51.558;-0.448;2023-04-08T11:28:40;102105.88;;;11.97;66.66
60832;BME280;46665;51.558;-0.448;2023-04-08T11:31:24;102106.75;;;12.02;66.80
60832;BME280;46665;51.558;-0.448;2023-04-08T11:34:09;102104.59;;;12.04;66.41
60832;BME280;46665;51.558;-0.448;2023-04-08T11:36:52;102105.88;;;11.97;63.77
60832;BME280;46665;51.558;-0.448;2023-04-08T11:39:42;102108.38;;;11.98;65.31
60832;BME280;46665;51.558;-0.448;2023-04-08T11:42:28;102114.44;;;12.05;64.95
60832;BME280;46665;51.558;-0.448;2023-04-08T11:45:14;102121.16;;;12.20;65.24
60832;BME280;46665;51.558;-0.448;2023-04-08T11:47:59;102114.97;;;12.29;63.29
60832;BME280;46665;51.558;-0.448;2023-04-08T11:50:44;102106.53;;;12.58;65.08
60832;BME280;46665;51.558;-0.448;2023-04-08T11:53:28;102104.78;;;12.74;65.18
60832;BME280;46665;51.558;-0.448;2023-04-08T11:56:19;102103.75;;;12.85;60.62
60832;BME280;46665;51.558;-0.448;2023-04-08T11:59:04;102102.28;;;13.05;60.62
60832;BME280;46665;51.558;-0.448;2023-04-08T12:01:48;102102.91;;;13.17;60.48
60832;BME280;46665;51.558;-0.448;2023-04-08T12:04:32;102104.00;;;13.16;58.48
60832;BME280;46665;51.558;-0.448;2023-04-08T12:07:16;102097.38;;;13.07;59.17
60832;BME280;46665;51.558;-0.448;2023-04-08T12:10:01;102103.94;;;13.11;59.74
60832;BME280;46665;51.558;-0.448;2023-04-08T12:12:44;102108.97;;;13.24;58.63
60832;BME280;46665;51.558;-0.448;2023-04-08T12:15:28;102103.34;;;13.41;58.66
60832;BME280;46665;51.558;-0.448;2023-04-08T12:18:12;102104.59;;;13.65;59.75
60832;BME280;46665;51.558;-0.448;2023-04-08T12:20:56;102095.28;;;13.66;58.62
60832;BME280;46665;51.558;-0.448;2023-04-08T12:23:40;102093.38;;;13.72;58.35
60832;BME280;46665;51.558;-0.448;2023-04-08T12:26:24;102091.78;;;13.81;58.71
60832;BME280;46665;51.558;-0.448;2023-04-08T12:29:11;102086.91;;;13.94;56.20
60832;BME280;46665;51.558;-0.448;2023-04-08T12:31:56;102086.13;;;14.03;56.89
60832;BME280;46665;51.558;-0.448;2023-04-08T12:34:40;102091.38;;;14.25;57.41
60832;BME280;46665;51.558;-0.448;2023-04-08T12:37:24;102082.09;;;14.37;55.94
60832;BME280;46665;51.558;-0.448;2023-04-08T12:40:08;102084.09;;;14.62;55.27
60832;BME280;46665;51.558;-0.448;2023-04-08T12:42:53;102083.78;;;14.68;54.60
60832;BME280;46665;51.558;-0.448;2023-04-08T12:45:37;102086.81;;;14.77;54.54
60832;BME280;46665;51.558;-0.448;2023-04-08T12:48:21;102081.88;;;14.84;53.30
60832;BME280;46665;51.558;-0.448;2023-04-08T12:51:05;102081.91;;;14.74;52.91
60832;BME280;46665;51.558;-0.448;2023-04-08T12:53:49;102083.81;;;14.84;53.35
60832;BME280;46665;51.558;-0.448;2023-04-08T12:56:33;102084.63;;;14.64;51.86
60832;BME280;46665;51.558;-0.448;2023-04-08T12:59:17;102084.03;;;14.41;51.36
60832;BME280;46665;51.558;-0.448;2023-04-08T13:02:02;102089.75;;;14.35;50.61
60832;BME280;46665;51.558;-0.448;2023-04-08T13:04:46;102080.47;;;14.30;50.09
60832;BME280;46665;51.558;-0.448;2023-04-08T13:07:30;102078.22;;;14.22;50.47
60832;BME280;46665;51.558;-0.448;2023-04-08T13:10:14;102080.72;;;14.34;51.86
60832;BME280;46665;51.558;-0.448;2023-04-08T13:12:58;102075.81;;;14.36;52.05
60832;BME280;46665;51.558;-0.448;2023-04-08T13:15:42;102070.59;;;14.29;49.41
60832;BME280;46665;51.558;-0.448;2023-04-08T13:18:26;102075.88;;;14.67;52.65
60832;BME280;46665;51.558;-0.448;2023-04-08T13:21:10;102073.09;;;14.92;53.03
60832;BME280;46665;51.558;-0.448;2023-04-08T13:23:54;102077.22;;;14.95;50.19
60832;BME280;46665;51.558;-0.448;2023-04-08T13:26:38;102082.72;;;14.85;49.59
60832;BME280;46665;51.558;-0.448;2023-04-08T13:29:22;102073.66;;;14.79;50.49
60832;BME280;46665;51.558;-0.448;2023-04-08T13:32:06;102077.22;;;14.69;50.25
60832;BME280;46665;51.558;-0.448;2023-04-08T13:34:50;102072.31;;;14.56;50.15
60832;BME280;46665;51.558;-0.448;2023-04-08T13:37:34;102082.94;;;14.47;50.67
60832;BME280;46665;51.558;-0.448;2023-04-08T13:40:18;102074.13;;;14.30;50.55
60832;BME280;46665;51.558;-0.448;2023-04-08T13:43:02;102081.28;;;14.26;52.23
60832;BME280;46665;51.558;-0.448;2023-04-08T13:45:46;102072.22;;;14.25;52.29
60832;BME280;46665;51.558;-0.448;2023-04-08T13:48:31;102076.03;;;14.19;52.74
60832;BME280;46665;51.558;-0.448;2023-04-08T13:51:15;102072.50;;;14.29;52.30
60832;BME280;46665;51.558;-0.448;2023-04-08T13:53:59;102069.25;;;14.52;52.35
60832;BME280;46665;51.558;-0.448;2023-04-08T13:56:44;102065.97;;;14.61;49.22
60832;BME280;46665;51.558;-0.448;2023-04-08T13:59:28;102057.25;;;14.54;50.04
60832;BME280;46665;51.558;-0.448;2023-04-08T14:02:13;102053.34;;;14.44;50.18
60832;BME280;46665;51.558;-0.448;2023-04-08T14:04:57;102050.06;;;14.37;50.41
60832;BME280;46665;51.558;-0.448;2023-04-08T14:07:41;102050.88;;;14.27;50.24
60832;BME280;46665;51.558;-0.448;2023-04-08T14:10:25;102055.50;;;14.17;50.26
60832;BME280;46665;51.558;-0.448;2023-04-08T14:13:09;102044.78;;;14.05;50.77
60832;BME280;46665;51.558;-0.448;2023-04-08T14:15:53;102048.13;;;14.22;50.84
60832;BME280;46665;51.558;-0.448;2023-04-08T14:18:40;102038.56;;;14.50;50.93
60832;BME280;46665;51.558;-0.448;2023-04-08T14:21:25;102051.19;;;14.77;49.75
60832;BME280;46665;51.558;-0.448;2023-04-08T14:24:09;102038.28;;;15.03;48.05
60832;BME280;46665;51.558;-0.448;2023-04-08T14:26:53;102039.03;;;15.24;47.64
60832;BME280;46665;51.558;-0.448;2023-04-08T14:29:37;102035.94;;;15.51;47.16